Time;durP1;ratioP1;P1;durP2;ratioP2;P2;SDS_P1;SDS_P2;PMS_P1;PMS_P2;Temp;Humidity;BMP_temperature;BMP_pressure;BME280_temperature;BME280_humidity;BME280_pressure;Samples;Min_cycle;Max_cycle;Signal;HPM_P1;HPM_P2
2022/06/27 00:01:51;;;;;;;;;;;27.10;46.10;;;;;;1568030;74;755;-60
2022/06/27 00:03:53;;;;;;;;;;;27.20;46.10;;;;;;1561514;74;828;-61
2022/06/27 00:05:56;;;;;;;;;;;27.20;46.10;;;;;;1570302;74;1464;-60
2022/06/27 00:07:58;;;;;;;;;;;27.10;46.10;;;;;;1575240;74;701;-60
2022/06/27 00:10:00;;;;;;;;;;;27.10;46.20;;;;;;1567964;74;762;-60
2022/06/27 00:12:02;;;;;;;;;;;27.10;46.10;;;;;;1574515;74;744;-60
2022/06/27 00:14:04;;;;;;;;;;;27.20;46.20;;;;;;1567981;74;1948;-61
2022/06/27 00:16:05;;;;;;;;;;;27.20;46.20;;;;;;1572654;74;1139;-61
2022/06/27 00:18:07;;;;;;;;;;;27.20;46.20;;;;;;1564909;74;717;-61
2022/06/27 00:20:10;;;;;;;;;;;27.10;46.20;;;;;;1581340;74;1541;-60
2022/06/27 00:22:12;;;;;;;;;;;27.20;46.20;;;;;;1566338;74;717;-60
2022/06/27 00:24:13;;;;;;;;;;;27.20;46.10;;;;;;1571511;74;731;-61
2022/06/27 00:26:15;;;;;;;;;;;27.10;46.10;;;;;;1577339;74;1140;-60
2022/06/27 00:28:17;;;;;;;;;;;27.10;46.10;;;;;;1572000;74;713;-60
2022/06/27 00:30:19;;;;;;;;;;;27.20;46.00;;;;;;1573310;74;778;-59
2022/06/27 00:32:23;;;;;;;;;;;27.10;46.10;;;;;;1572173;74;721;-60
2022/06/27 00:34:25;;;;;;;;;;;27.20;46.00;;;;;;1566178;75;1913;-61
2022/06/27 00:36:26;;;;;;;;;;;27.20;46.10;;;;;;1565016;75;1189;-60
2022/06/27 00:38:28;;;;;;;;;;;27.20;46.10;;;;;;1562059;75;730;-60
2022/06/27 00:40:30;;;;;;;;;;;27.10;46.00;;;;;;1566414;75;720;-58
2022/06/27 00:42:32;;;;;;;;;;;27.20;46.10;;;;;;1564694;75;671;-58
2022/06/27 00:44:37;;;;;;;;;;;27.10;46.00;;;;;;1557024;75;768;-55
2022/06/27 00:46:39;;;;;;;;;;;27.10;46.00;;;;;;1562802;75;1635;-58
2022/06/27 00:48:41;;;;;;;;;;;27.20;46.00;;;;;;1566264;75;714;-60
2022/06/27 00:50:44;;;;;;;;;;;27.20;46.00;;;;;;1565125;75;805;-54
2022/06/27 00:52:45;;;;;;;;;;;27.20;46.00;;;;;;1565133;75;757;-58
2022/06/27 00:54:48;;;;;;;;;;;27.20;46.00;;;;;;1559841;75;1934;-59
2022/06/27 00:56:50;;;;;;;;;;;27.20;46.00;;;;;;1566477;74;1084;-60
2022/06/27 00:58:52;;;;;;;;;;;27.20;46.00;;;;;;1564373;75;778;-59
2022/06/27 01:00:54;;;;;;;;;;;27.20;46.00;;;;;;1566552;75;1554;-60
2022/06/27 01:02:55;;;;;;;;;;;27.20;46.00;;;;;;1562459;75;769;-56
2022/06/27 01:04:57;;;;;;;;;;;27.20;46.00;;;;;;1564790;75;773;-55
2022/06/27 01:06:59;;;;;;;;;;;27.20;46.00;;;;;;1563279;75;1133;-60
2022/06/27 01:09:01;;;;;;;;;;;27.20;46.00;;;;;;1567939;75;766;-59
2022/06/27 01:11:03;;;;;;;;;;;27.20;46.00;;;;;;1567475;75;923;-60
2022/06/27 01:13:05;;;;;;;;;;;27.20;46.00;;;;;;1568427;74;739;-60
2022/06/27 01:15:07;;;;;;;;;;;27.20;46.10;;;;;;1548348;72;3053;-56
2022/06/27 01:17:10;;;;;;;;;;;27.20;46.10;;;;;;1508943;75;1230;-56
2022/06/27 01:19:13;;;;;;;;;;;27.10;46.10;;;;;;1502555;76;1037;-55
2022/06/27 01:21:16;;;;;;;;;;;27.10;46.00;;;;;;1547376;75;676;-56
2022/06/27 01:23:18;;;;;;;;;;;27.10;46.10;;;;;;1546626;75;1614;-55
2022/06/27 01:25:20;;;;;;;;;;;27.10;46.10;;;;;;1548045;75;666;-56
2022/06/27 01:27:22;;;;;;;;;;;27.10;46.20;;;;;;1543761;75;1225;-55
2022/06/27 01:29:24;;;;;;;;;;;27.10;46.20;;;;;;1544703;75;1485;-56
2022/06/27 01:31:27;;;;;;;;;;;27.10;46.20;;;;;;1540111;75;682;-57
2022/06/27 01:33:29;;;;;;;;;;;27.10;46.20;;;;;;1544590;75;1913;-57
2022/06/27 01:35:31;;;;;;;;;;;27.10;46.20;;;;;;1537944;75;654;-56
2022/06/27 01:37:33;;;;;;;;;;;27.10;46.20;;;;;;1557382;75;1141;-56
2022/06/27 01:39:35;;;;;;;;;;;27.10;46.20;;;;;;1558557;75;596;-56
2022/06/27 01:41:38;;;;;;;;;;;27.10;46.20;;;;;;1539839;75;684;-57
2022/06/27 01:43:40;;;;;;;;;;;27.10;46.30;;;;;;1547424;75;1836;-56
2022/06/27 01:45:42;;;;;;;;;;;27.10;46.30;;;;;;1537826;75;688;-56
2022/06/27 01:47:44;;;;;;;;;;;27.10;46.20;;;;;;1536410;75;1078;-56
2022/06/27 01:49:46;;;;;;;;;;;27.20;46.30;;;;;;1539436;75;614;-56
2022/06/27 01:51:48;;;;;;;;;;;27.20;46.40;;;;;;1554753;75;680;-55
2022/06/27 01:53:52;;;;;;;;;;;27.10;46.30;;;;;;1551803;75;1934;-58
2022/06/27 01:55:54;;;;;;;;;;;27.10;46.30;;;;;;1542683;75;674;-56
2022/06/27 01:57:55;;;;;;;;;;;27.20;46.40;;;;;;1543035;75;1479;-55
2022/06/27 01:59:57;;;;;;;;;;;27.10;46.30;;;;;;1547414;75;618;-56
2022/06/27 02:01:59;;;;;;;;;;;27.10;46.40;;;;;;1546534;75;650;-56
2022/06/27 02:04:01;;;;;;;;;;;27.10;46.30;;;;;;1542064;75;1060;-56
2022/06/27 02:06:03;;;;;;;;;;;27.10;46.20;;;;;;1552526;74;1158;-56
2022/06/27 02:08:05;;;;;;;;;;;27.10;46.20;;;;;;1552071;75;711;-57
2022/06/27 02:10:07;;;;;;;;;;;27.10;46.10;;;;;;1548444;75;684;-56
2022/06/27 02:12:23;;;;;;;;;;;27.10;45.90;;;;;;1550463;75;1491;-56
2022/06/27 02:14:25;;;;;;;;;;;27.10;45.90;;;;;;1540033;75;1927;-56
2022/06/27 02:16:27;;;;;;;;;;;27.10;45.80;;;;;;1554566;75;1157;-55
2022/06/27 02:18:29;;;;;;;;;;;27.00;45.70;;;;;;1550412;75;656;-57
2022/06/27 02:20:31;;;;;;;;;;;27.00;45.70;;;;;;1549643;75;704;-56
2022/06/27 02:22:32;;;;;;;;;;;27.00;45.60;;;;;;1559284;75;649;-56
2022/06/27 02:24:34;;;;;;;;;;;27.00;45.60;;;;;;1549098;75;693;-56
2022/06/27 02:26:36;;;;;;;;;;;27.00;45.50;;;;;;1537546;74;1548;-56
2022/06/27 02:28:39;;;;;;;;;;;27.10;45.50;;;;;;1544894;75;679;-56
2022/06/27 02:30:40;;;;;;;;;;;27.00;45.50;;;;;;1529734;75;683;-56
2022/06/27 02:32:42;;;;;;;;;;;27.00;45.40;;;;;;1541089;75;764;-56
2022/06/27 02:34:44;;;;;;;;;;;27.10;45.20;;;;;;1544952;75;1954;-56
2022/06/27 02:36:47;;;;;;;;;;;27.00;45.20;;;;;;1554204;75;1161;-58
2022/06/27 02:38:51;;;;;;;;;;;27.00;45.20;;;;;;1532254;75;707;-56
2022/06/27 02:40:53;;;;;;;;;;;27.00;45.10;;;;;;1538869;75;1330;-56
2022/06/27 02:42:55;;;;;;;;;;;27.00;45.10;;;;;;1548316;75;705;-57
2022/06/27 02:44:57;;;;;;;;;;;26.90;44.30;;;;;;1534693;75;759;-56
2022/06/27 02:46:59;;;;;;;;;;;27.00;44.90;;;;;;1545133;75;1161;-56
2022/06/27 02:49:01;;;;;;;;;;;27.00;44.90;;;;;;1538557;75;705;-55
2022/06/27 02:51:05;;;;;;;;;;;27.00;44.70;;;;;;1537830;75;662;-57
2022/06/27 02:53:09;;;;;;;;;;;26.90;44.00;;;;;;1539607;75;695;-56
2022/06/27 02:55:13;;;;;;;;;;;27.00;44.70;;;;;;1545232;75;1917;-57
2022/06/27 02:57:16;;;;;;;;;;;27.00;44.70;;;;;;1540373;75;1562;-57
2022/06/27 02:59:19;;;;;;;;;;;26.90;44.00;;;;;;1541538;75;718;-57
2022/06/27 03:01:21;;;;;;;;;;;27.00;44.60;;;;;;1541188;75;1042;-57
2022/06/27 03:03:23;;;;;;;;;;;27.00;44.70;;;;;;1549523;75;730;-57
2022/06/27 03:05:25;;;;;;;;;;;26.90;43.90;;;;;;1544084;75;693;-57
2022/06/27 03:07:27;;;;;;;;;;;27.00;44.50;;;;;;1547399;75;1456;-56
2022/06/27 03:09:29;;;;;;;;;;;26.90;43.90;;;;;;1541940;75;682;-59
2022/06/27 03:11:31;;;;;;;;;;;26.90;43.90;;;;;;1540275;75;1008;-57
2022/06/27 03:13:33;;;;;;;;;;;27.00;44.50;;;;;;1547595;75;755;-56
2022/06/27 03:15:35;;;;;;;;;;;27.00;44.60;;;;;;1535858;75;1946;-57
2022/06/27 03:17:37;;;;;;;;;;;26.90;43.90;;;;;;1541953;75;1159;-56
2022/06/27 03:19:39;;;;;;;;;;;26.90;43.90;;;;;;1547478;75;702;-57
2022/06/27 03:21:41;;;;;;;;;;;26.90;43.90;;;;;;1545705;75;1487;-56
2022/06/27 03:23:43;;;;;;;;;;;27.00;44.60;;;;;;1541587;75;662;-57
2022/06/27 03:25:44;;;;;;;;;;;27.00;44.60;;;;;;1546115;75;676;-57
2022/06/27 03:27:46;;;;;;;;;;;26.90;43.90;;;;;;1548010;75;1133;-56
2022/06/27 03:29:48;;;;;;;;;;;27.00;44.70;;;;;;1538927;75;661;-57
2022/06/27 03:31:50;;;;;;;;;;;27.00;44.70;;;;;;1536828;75;649;-58
2022/06/27 03:33:54;;;;;;;;;;;26.90;44.10;;;;;;1542554;75;733;-56
2022/06/27 03:35:55;;;;;;;;;;;27.00;44.80;;;;;;1541504;75;1927;-56
2022/06/27 03:37:57;;;;;;;;;;;27.00;44.90;;;;;;1544753;75;760;-57
2022/06/27 03:39:59;;;;;;;;;;;27.00;44.90;;;;;;1542083;75;668;-57
2022/06/27 03:42:01;;;;;;;;;;;26.90;44.20;;;;;;1546758;75;657;-57
2022/06/27 03:44:04;;;;;;;;;;;27.00;44.90;;;;;;1541892;75;673;-56
2022/06/27 03:46:06;;;;;;;;;;;27.00;45.00;;;;;;1540389;75;1175;-57
2022/06/27 03:48:08;;;;;;;;;;;26.90;44.30;;;;;;1548287;75;704;-58
2022/06/27 03:50:10;;;;;;;;;;;27.00;45.10;;;;;;1547300;75;1468;-57
2022/06/27 03:52:11;;;;;;;;;;;27.00;45.00;;;;;;1546889;75;952;-57
2022/06/27 03:54:13;;;;;;;;;;;27.00;45.10;;;;;;1541520;75;646;-57
2022/06/27 03:56:15;;;;;;;;;;;27.00;45.20;;;;;;1541973;75;1926;-56
2022/06/27 03:58:17;;;;;;;;;;;27.00;45.00;;;;;;1544667;75;690;-56
2022/06/27 04:00:20;;;;;;;;;;;27.10;45.10;;;;;;1538866;75;693;-57
2022/06/27 04:02:21;;;;;;;;;;;27.00;45.20;;;;;;1535690;75;673;-56
2022/06/27 04:04:23;;;;;;;;;;;27.10;45.20;;;;;;1544204;75;1443;-56
2022/06/27 04:06:25;;;;;;;;;;;27.10;45.20;;;;;;1550815;75;1157;-57
2022/06/27 04:08:27;;;;;;;;;;;27.00;45.20;;;;;;1541649;75;687;-56
2022/06/27 04:10:29;;;;;;;;;;;27.00;45.30;;;;;;1545477;75;735;-56
2022/06/27 04:12:31;;;;;;;;;;;27.00;45.30;;;;;;1542250;75;650;-57
2022/06/27 04:14:33;;;;;;;;;;;27.00;45.20;;;;;;1545773;75;1938;-56
2022/06/27 04:16:35;;;;;;;;;;;27.00;45.30;;;;;;1546960;74;1212;-56
2022/06/27 04:18:37;;;;;;;;;;;27.00;45.30;;;;;;1544070;75;1508;-56
2022/06/27 04:20:39;;;;;;;;;;;27.00;45.30;;;;;;1538211;75;679;-56
2022/06/27 04:22:40;;;;;;;;;;;27.00;45.40;;;;;;1536546;75;707;-56
2022/06/27 04:24:42;;;;;;;;;;;27.00;45.40;;;;;;1541797;75;674;-56
2022/06/27 04:26:44;;;;;;;;;;;27.00;45.40;;;;;;1545623;75;1204;-57
2022/06/27 04:28:47;;;;;;;;;;;27.10;45.40;;;;;;1543559;75;696;-57
2022/06/27 04:30:49;;;;;;;;;;;27.00;45.40;;;;;;1543891;75;833;-56
2022/06/27 04:32:51;;;;;;;;;;;27.00;45.50;;;;;;1538660;75;1505;-57
2022/06/27 04:34:53;;;;;;;;;;;27.00;45.50;;;;;;1536221;75;1932;-57
2022/06/27 04:36:55;;;;;;;;;;;27.10;45.40;;;;;;1542126;75;1158;-57
2022/06/27 04:38:57;;;;;;;;;;;27.10;45.40;;;;;;1546515;75;657;-56
2022/06/27 04:40:59;;;;;;;;;;;27.00;45.50;;;;;;1539994;75;727;-57
2022/06/27 04:43:01;;;;;;;;;;;27.10;45.50;;;;;;1540041;75;614;-56
2022/06/27 04:45:05;;;;;;;;;;;27.10;45.60;;;;;;1544511;75;659;-56
2022/06/27 04:47:08;;;;;;;;;;;27.10;45.60;;;;;;1543522;75;1596;-56
2022/06/27 04:49:10;;;;;;;;;;;27.10;45.60;;;;;;1543200;75;648;-56
2022/06/27 04:51:13;;;;;;;;;;;27.10;45.70;;;;;;1537130;75;670;-56
2022/06/27 04:53:15;;;;;;;;;;;27.10;45.70;;;;;;1539862;75;695;-55
2022/06/27 04:55:17;;;;;;;;;;;27.10;45.70;;;;;;1538745;75;1947;-57
2022/06/27 04:57:19;;;;;;;;;;;27.10;45.70;;;;;;1545523;75;1134;-56
2022/06/27 04:59:22;;;;;;;;;;;27.10;45.70;;;;;;1549031;75;673;-56
2022/06/27 05:01:23;;;;;;;;;;;27.10;45.70;;;;;;1542737;75;1448;-55
2022/06/27 05:03:26;;;;;;;;;;;27.10;45.70;;;;;;1548931;75;670;-57
2022/06/27 05:05:28;;;;;;;;;;;27.10;45.70;;;;;;1538208;75;701;-56
2022/06/27 05:07:31;;;;;;;;;;;27.10;45.70;;;;;;1546428;75;1141;-57
2022/06/27 05:09:32;;;;;;;;;;;27.10;45.70;;;;;;1544953;75;655;-56
2022/06/27 05:11:35;;;;;;;;;;;27.10;45.70;;;;;;1542792;75;663;-56
2022/06/27 05:13:36;;;;;;;;;;;27.20;45.70;;;;;;1534311;75;619;-55
2022/06/27 05:15:38;;;;;;;;;;;27.30;45.70;;;;;;1545392;75;1937;-55
2022/06/27 05:17:43;;;;;;;;;;;27.40;45.60;;;;;;1549206;74;1143;-57
2022/06/27 05:19:44;;;;;;;;;;;27.40;45.50;;;;;;1540636;75;1067;-56
2022/06/27 05:21:46;;;;;;;;;;;27.40;45.50;;;;;;1544991;75;725;-56
2022/06/27 05:23:50;;;;;;;;;;;27.40;45.40;;;;;;1544672;75;717;-56
2022/06/27 05:25:51;;;;;;;;;;;27.40;45.30;;;;;;1549931;75;1676;-56
2022/06/27 05:27:56;;;;;;;;;;;27.40;45.30;;;;;;1549405;75;1471;-56
2022/06/27 05:29:57;;;;;;;;;;;27.50;45.20;;;;;;1550965;75;1612;-56
2022/06/27 05:31:59;;;;;;;;;;;27.60;45.10;;;;;;1544087;75;698;-57
2022/06/27 05:34:01;;;;;;;;;;;27.60;45.00;;;;;;1541559;75;682;-57
2022/06/27 05:36:04;;;;;;;;;;;27.60;44.90;;;;;;1538121;75;1940;-56
2022/06/27 05:38:06;;;;;;;;;;;27.70;44.80;;;;;;1548399;75;708;-56
2022/06/27 05:40:08;;;;;;;;;;;27.70;44.70;;;;;;1552481;75;660;-57
2022/06/27 05:42:10;;;;;;;;;;;27.70;44.40;;;;;;1551962;75;1573;-58
2022/06/27 05:44:17;;;;;;;;;;;27.80;44.40;;;;;;1548928;75;749;-56
2022/06/27 05:46:16;;;;;;;;;;;27.80;44.30;;;;;;1543731;75;1518;-58
2022/06/27 05:48:19;;;;;;;;;;;27.80;44.30;;;;;;1540540;75;685;-59
2022/06/27 05:50:21;;;;;;;;;;;27.80;44.30;;;;;;1545983;75;636;-58
2022/06/27 05:52:23;;;;;;;;;;;27.80;44.30;;;;;;1553214;75;772;-56
2022/06/27 05:54:25;;;;;;;;;;;27.80;44.20;;;;;;1549862;75;724;-57
2022/06/27 05:56:28;;;;;;;;;;;27.80;44.20;;;;;;1563772;74;1911;-57
2022/06/27 05:58:32;;;;;;;;;;;27.80;44.20;;;;;;1537849;75;668;-57
2022/06/27 06:00:34;;;;;;;;;;;27.80;44.10;;;;;;1541294;75;1045;-56
2022/06/27 06:02:36;;;;;;;;;;;27.80;44.00;;;;;;1533046;75;691;-57
2022/06/27 06:04:38;;;;;;;;;;;27.80;44.00;;;;;;1545766;75;724;-57
2022/06/27 06:06:43;;;;;;;;;;;27.80;44.00;;;;;;1548970;75;1168;-57
2022/06/27 06:08:45;;;;;;;;;;;28.00;44.50;;;;;;1542172;75;1677;-57
2022/06/27 06:10:47;;;;;;;;;;;28.00;44.40;;;;;;1549232;75;1469;-57
2022/06/27 06:12:50;;;;;;;;;;;28.00;44.40;;;;;;1548391;75;649;-57
2022/06/27 06:14:53;;;;;;;;;;;28.00;44.30;;;;;;1549958;75;676;-57
2022/06/27 06:16:55;;;;;;;;;;;28.00;44.20;;;;;;1544839;75;1903;-57
2022/06/27 06:18:57;;;;;;;;;;;28.00;44.20;;;;;;1539287;75;834;-57
2022/06/27 06:20:59;;;;;;;;;;;28.00;44.20;;;;;;1542583;75;743;-56
2022/06/27 06:23:00;;;;;;;;;;;28.00;44.20;;;;;;1540437;75;701;-55
2022/06/27 06:25:02;;;;;;;;;;;28.00;44.10;;;;;;1535778;75;1454;-55
2022/06/27 06:27:05;;;;;;;;;;;28.00;43.90;;;;;;1542623;75;1201;-56
2022/06/27 06:29:14;;;;;;;;;;;28.00;43.90;;;;;;1541669;75;686;-59
2022/06/27 06:31:23;;;;;;;;;;;28.10;43.90;;;;;;1542968;75;629;-56
2022/06/27 06:33:26;;;;;;;;;;;28.10;43.20;;;;;;1547690;75;746;-57
2022/06/27 06:35:28;;;;;;;;;;;28.10;43.60;;;;;;1533053;75;1928;-56
2022/06/27 06:37:31;;;;;;;;;;;28.20;43.60;;;;;;1535237;75;1136;-58
2022/06/27 06:39:33;;;;;;;;;;;28.20;43.50;;;;;;1541092;75;1454;-56
2022/06/27 06:41:36;;;;;;;;;;;28.30;43.50;;;;;;1544724;75;617;-58
2022/06/27 06:43:37;;;;;;;;;;;28.30;43.50;;;;;;1546062;75;665;-56
2022/06/27 06:45:40;;;;;;;;;;;28.30;43.30;;;;;;1542227;75;683;-55
2022/06/27 06:47:44;;;;;;;;;;;28.30;43.20;;;;;;1537612;75;1131;-54
2022/06/27 06:49:46;;;;;;;;;;;28.30;43.10;;;;;;1535177;75;1041;-54
2022/06/27 06:51:48;;;;;;;;;;;28.30;43.30;;;;;;1546610;75;695;-55
2022/06/27 06:53:50;;;;;;;;;;;28.30;43.20;;;;;;1538136;75;1482;-54
2022/06/27 06:55:53;;;;;;;;;;;28.30;43.30;;;;;;1546136;75;1919;-55
2022/06/27 06:57:55;;;;;;;;;;;28.30;43.10;;;;;;1546275;75;1122;-55
2022/06/27 06:59:57;;;;;;;;;;;28.40;43.20;;;;;;1543209;75;623;-55
2022/06/27 07:01:59;;;;;;;;;;;28.30;43.20;;;;;;1541947;75;698;-54
2022/06/27 07:04:02;;;;;;;;;;;28.30;43.10;;;;;;1542418;75;688;-57
2022/06/27 07:06:05;;;;;;;;;;;28.30;43.20;;;;;;1538398;75;1154;-58
2022/06/27 07:08:07;;;;;;;;;;;28.30;43.10;;;;;;1550340;75;1424;-55
2022/06/27 07:10:11;;;;;;;;;;;28.30;43.10;;;;;;1549467;75;778;-54
2022/06/27 07:12:13;;;;;;;;;;;28.30;43.10;;;;;;1540481;75;656;-55
2022/06/27 07:14:15;;;;;;;;;;;28.30;43.20;;;;;;1533240;75;723;-57
2022/06/27 07:16:19;;;;;;;;;;;28.30;43.40;;;;;;1558239;71;228501;-72
2022/06/27 07:18:21;;;;;;;;;;;28.30;43.30;;;;;;1566394;74;1013;-71
2022/06/27 07:20:24;;;;;;;;;;;28.20;43.40;;;;;;1566027;74;751;-74
2022/06/27 07:22:28;;;;;;;;;;;28.30;43.40;;;;;;1564633;74;797;-72
2022/06/27 07:24:30;;;;;;;;;;;28.30;43.40;;;;;;1563644;74;801;-72
2022/06/27 07:26:32;;;;;;;;;;;28.20;43.40;;;;;;1562804;76;1151;-72
2022/06/27 07:28:34;;;;;;;;;;;28.30;43.40;;;;;;1554124;76;691;-72
2022/06/27 07:30:37;;;;;;;;;;;28.20;43.50;;;;;;1561320;76;680;-72
2022/06/27 07:32:39;;;;;;;;;;;28.30;43.40;;;;;;1561329;74;697;-73
2022/06/27 07:34:41;;;;;;;;;;;28.30;43.30;;;;;;1554914;74;1550;-72
2022/06/27 07:36:43;;;;;;;;;;;28.30;43.30;;;;;;1566986;74;1934;-75
2022/06/27 07:38:46;;;;;;;;;;;28.30;43.30;;;;;;1564301;74;697;-72
2022/06/27 07:40:49;;;;;;;;;;;28.20;43.30;;;;;;1556793;74;695;-73
2022/06/27 07:42:51;;;;;;;;;;;28.20;43.40;;;;;;1553298;74;770;-73
2022/06/27 07:44:54;;;;;;;;;;;28.30;43.40;;;;;;1563874;74;1100;-73
2022/06/27 07:46:56;;;;;;;;;;;28.30;43.40;;;;;;1560099;74;708;-72
2022/06/27 07:48:58;;;;;;;;;;;28.40;43.40;;;;;;1565954;74;1351;-72
2022/06/27 07:51:00;;;;;;;;;;;28.30;43.40;;;;;;1565163;74;712;-72
2022/06/27 07:53:18;;;;;;;;;;;28.40;43.30;;;;;;1560963;74;733;-75
2022/06/27 07:55:21;;;;;;;;;;;28.40;43.50;;;;;;1566005;74;1121;-72
2022/06/27 07:57:23;;;;;;;;;;;28.30;43.40;;;;;;1556833;76;1916;-72
2022/06/27 07:59:26;;;;;;;;;;;28.30;43.50;;;;;;1566966;74;741;-74
2022/06/27 08:01:28;;;;;;;;;;;28.40;43.40;;;;;;1562782;74;722;-74
2022/06/27 08:03:47;;;;;;;;;;;28.40;43.50;;;;;;1567743;74;1602;-74
2022/06/27 08:05:48;;;;;;;;;;;28.30;43.30;;;;;;1567839;74;1959;-72
2022/06/27 08:07:50;;;;;;;;;;;28.20;43.50;;;;;;1559232;74;702;-73
2022/06/27 08:09:52;;;;;;;;;;;28.20;43.50;;;;;;1567680;76;745;-73
2022/06/27 08:11:54;;;;;;;;;;;28.30;43.50;;;;;;1554058;74;721;-72
2022/06/27 08:13:57;;;;;;;;;;;28.20;43.60;;;;;;1565338;74;744;-76
2022/06/27 08:15:59;;;;;;;;;;;28.20;43.40;;;;;;1563917;76;1966;-74
2022/06/27 08:18:02;;;;;;;;;;;28.20;43.60;;;;;;1559574;74;1596;-72
2022/06/27 08:20:04;;;;;;;;;;;28.30;43.50;;;;;;1565740;74;723;-72
2022/06/27 08:22:06;;;;;;;;;;;28.40;43.60;;;;;;1561620;74;772;-72
2022/06/27 08:24:09;;;;;;;;;;;28.40;43.70;;;;;;1564926;74;721;-70
2022/06/27 08:26:12;;;;;;;;;;;28.30;44.20;;;;;;1564324;74;1125;-72
2022/06/27 08:28:16;;;;;;;;;;;28.30;44.20;;;;;;1566039;74;734;-72
2022/06/27 08:30:18;;;;;;;;;;;28.30;44.20;;;;;;1559891;74;1366;-72
2022/06/27 08:32:19;;;;;;;;;;;28.30;44.20;;;;;;1562529;74;1364;-77
2022/06/27 08:34:23;;;;;;;;;;;28.50;43.80;;;;;;1565091;74;789;-71
2022/06/27 08:36:35;;;;;;;;;;;28.50;43.60;;;;;;1603310;72;1186;-60
2022/06/27 08:38:42;;;;;;;;;;;28.50;43.60;;;;;;1593170;73;634;-60
2022/06/27 08:40:44;;;;;;;;;;;28.60;43.70;;;;;;1591144;73;1509;-59
2022/06/27 08:42:46;;;;;;;;;;;28.50;43.80;;;;;;1591331;73;757;-57
2022/06/27 08:44:47;;;;;;;;;;;28.50;43.90;;;;;;1588854;73;1517;-56
2022/06/27 08:46:51;;;;;;;;;;;28.50;43.90;;;;;;1597129;73;1193;-59
2022/06/27 08:48:53;;;;;;;;;;;28.40;44.00;;;;;;1590222;73;690;-55
2022/06/27 08:50:59;;;;;;;;;;;28.50;43.90;;;;;;1594074;73;697;-58
2022/06/27 08:52:58;;;;;;;;;;;28.40;44.00;;;;;;1584577;73;1651;-58
2022/06/27 08:55:01;;;;;;;;;;;28.50;44.00;;;;;;1591827;73;1897;-58
2022/06/27 08:57:04;;;;;;;;;;;28.50;44.00;;;;;;1588679;73;1143;-59
2022/06/27 08:59:06;;;;;;;;;;;28.50;44.60;;;;;;1593286;73;1559;-57
2022/06/27 09:01:09;;;;;;;;;;;28.50;44.40;;;;;;1591190;73;753;-57
2022/06/27 09:03:13;;;;;;;;;;;28.40;44.20;;;;;;1588642;73;783;-60
2022/06/27 09:05:22;;;;;;;;;;;28.50;44.20;;;;;;1584508;73;1170;-57
2022/06/27 09:07:25;;;;;;;;;;;28.50;43.90;;;;;;1596001;73;1163;-56
2022/06/27 09:09:27;;;;;;;;;;;28.60;43.90;;;;;;1594363;73;1303;-57
2022/06/27 09:11:31;;;;;;;;;;;28.50;44.00;;;;;;1593381;73;889;-60
2022/06/27 09:13:33;;;;;;;;;;;28.50;44.00;;;;;;1590914;73;1542;-56
2022/06/27 09:15:44;;;;;;;;;;;28.50;44.20;;;;;;1594123;73;1929;-56
2022/06/27 09:17:43;;;;;;;;;;;28.50;43.80;;;;;;1596645;73;1603;-60
2022/06/27 09:19:49;;;;;;;;;;;28.50;43.90;;;;;;1592650;73;706;-59
2022/06/27 09:21:53;;;;;;;;;;;28.50;44.00;;;;;;1590320;73;1003;-57
2022/06/27 09:23:58;;;;;;;;;;;28.60;43.90;;;;;;1585511;73;1719;-57
2022/06/27 09:25:59;;;;;;;;;;;28.50;43.70;;;;;;1593417;73;1498;-60
2022/06/27 09:28:01;;;;;;;;;;;28.60;43.60;;;;;;1591529;73;1592;-57
2022/06/27 09:30:14;;;;;;;;;;;28.60;43.70;;;;;;1587943;73;766;-59
2022/06/27 09:32:17;;;;;;;;;;;28.60;43.60;;;;;;1551046;74;1045;-58
2022/06/27 09:34:19;;;;;;;;;;;28.60;43.60;;;;;;1563852;75;759;-58
2022/06/27 09:36:21;;;;;;;;;;;28.60;43.60;;;;;;1594235;73;1925;-60
2022/06/27 09:38:25;;;;;;;;;;;28.60;43.60;;;;;;1596296;73;730;-59
2022/06/27 09:40:27;;;;;;;;;;;28.60;43.50;;;;;;1593873;73;762;-59
2022/06/27 09:42:29;;;;;;;;;;;28.50;43.50;;;;;;1591837;73;1517;-58
2022/06/27 09:44:35;;;;;;;;;;;28.50;43.60;;;;;;1587967;73;661;-58
2022/06/27 09:46:42;;;;;;;;;;;28.50;43.60;;;;;;1596984;73;1128;-57
2022/06/27 09:48:43;;;;;;;;;;;28.50;43.60;;;;;;1593673;73;912;-57
2022/06/27 09:50:47;;;;;;;;;;;28.50;43.70;;;;;;1592735;73;809;-59
2022/06/27 09:52:49;;;;;;;;;;;28.60;43.70;;;;;;1598019;73;727;-59
2022/06/27 09:54:52;;;;;;;;;;;28.50;43.70;;;;;;1598277;73;684;-59
2022/06/27 09:56:54;;;;;;;;;;;28.60;43.60;;;;;;1603502;73;1912;-60
2022/06/27 09:58:55;;;;;;;;;;;28.50;43.60;;;;;;1588232;73;690;-62
2022/06/27 10:00:57;;;;;;;;;;;28.50;43.80;;;;;;1588251;73;701;-61
2022/06/27 10:03:01;;;;;;;;;;;28.50;43.70;;;;;;1592430;73;729;-59
2022/06/27 10:05:03;;;;;;;;;;;28.50;44.10;;;;;;1594196;73;624;-59
2022/06/27 10:07:07;;;;;;;;;;;28.50;43.90;;;;;;1593048;73;1128;-59
2022/06/27 10:09:09;;;;;;;;;;;28.40;43.90;;;;;;1592208;73;1524;-58
2022/06/27 10:11:12;;;;;;;;;;;28.50;43.90;;;;;;1591739;73;724;-61
2022/06/27 10:13:14;;;;;;;;;;;28.50;43.90;;;;;;1596134;73;763;-59
2022/06/27 10:15:19;;;;;;;;;;;28.50;43.80;;;;;;1586976;73;1929;-58
2022/06/27 10:17:21;;;;;;;;;;;28.50;43.80;;;;;;1592850;73;1079;-59
2022/06/27 10:19:24;;;;;;;;;;;28.40;43.80;;;;;;1594227;73;752;-60
2022/06/27 10:21:27;;;;;;;;;;;28.40;43.90;;;;;;1587642;73;651;-58
2022/06/27 10:23:31;;;;;;;;;;;28.30;43.90;;;;;;1588713;73;1540;-61
2022/06/27 10:25:34;;;;;;;;;;;28.40;43.90;;;;;;1589513;73;1672;-59
2022/06/27 10:27:36;;;;;;;;;;;28.40;43.90;;;;;;1590895;73;1119;-59
2022/06/27 10:29:45;;;;;;;;;;;28.30;43.80;;;;;;1593131;73;740;-60
2022/06/27 10:31:47;;;;;;;;;;;28.30;43.90;;;;;;1589561;73;735;-58
2022/06/27 10:33:49;;;;;;;;;;;28.30;44.00;;;;;;1591902;73;717;-60
2022/06/27 10:35:59;;;;;;;;;;;28.30;44.00;;;;;;1596910;73;1944;-58
2022/06/27 10:38:01;;;;;;;;;;;28.20;44.00;;;;;;1593100;73;1517;-59
2022/06/27 10:40:23;;;;;;;;;;;28.30;44.00;;;;;;1572368;75;1161;-60
2022/06/27 10:42:44;;;;;;;;;;;28.20;44.00;;;;;;1595860;73;725;-60
2022/06/27 10:44:45;;;;;;;;;;;28.20;44.10;;;;;;1594344;73;655;-59
2022/06/27 10:46:47;;;;;;;;;;;28.20;44.10;;;;;;1597796;73;1138;-59
2022/06/27 10:48:54;;;;;;;;;;;28.20;44.20;;;;;;1587498;73;725;-59
2022/06/27 10:50:56;;;;;;;;;;;28.20;44.20;;;;;;1594268;73;1023;-59
2022/06/27 10:53:02;;;;;;;;;;;28.20;44.20;;;;;;1595069;73;1589;-60
2022/06/27 10:55:06;;;;;;;;;;;28.20;44.20;;;;;;1558613;73;1260;-59
2022/06/27 10:57:07;;;;;;;;;;;28.20;44.20;;;;;;1591839;73;2017;-59
2022/06/27 10:59:17;;;;;;;;;;;28.20;44.20;;;;;;1594495;73;747;-60
2022/06/27 11:01:19;;;;;;;;;;;28.20;44.20;;;;;;1589918;73;783;-61
2022/06/27 11:03:22;;;;;;;;;;;28.20;44.40;;;;;;1596006;73;775;-60
2022/06/27 11:05:24;;;;;;;;;;;28.20;44.30;;;;;;1588977;73;1534;-58
2022/06/27 11:07:26;;;;;;;;;;;28.20;44.40;;;;;;1592281;73;1098;-59
2022/06/27 11:09:38;;;;;;;;;;;28.20;44.50;;;;;;1592578;73;708;-60
2022/06/27 11:11:39;;;;;;;;;;;28.20;44.50;;;;;;1596378;73;680;-61
2022/06/27 11:13:45;;;;;;;;;;;28.20;44.50;;;;;;1592523;73;743;-59
2022/06/27 11:15:51;;;;;;;;;;;28.20;44.70;;;;;;1597719;73;1929;-61
2022/06/27 11:17:53;;;;;;;;;;;28.20;44.70;;;;;;1586619;73;1066;-60
2022/06/27 11:20:14;;;;;;;;;;;28.20;45.00;;;;;;1596624;73;1575;-58
2022/06/27 11:22:20;;;;;;;;;;;28.20;45.00;;;;;;1597084;73;668;-61
2022/06/27 11:24:21;;;;;;;;;;;28.20;44.90;;;;;;1602202;73;726;-60
2022/06/27 11:26:28;;;;;;;;;;;28.20;44.80;;;;;;1593261;73;1147;-59
2022/06/27 11:33:10;;;;;;;;;;;28.20;44.90;;;;;;1600257;73;720;-58
2022/06/27 11:35:12;;;;;;;;;;;28.20;45.00;;;;;;1594305;73;1552;-60
2022/06/27 11:37:15;;;;;;;;;;;28.20;45.00;;;;;;1587313;73;1933;-60
2022/06/27 11:39:18;;;;;;;;;;;28.20;45.00;;;;;;1589808;73;735;-61
2022/06/27 11:41:30;;;;;;;;;;;28.20;45.10;;;;;;1586285;73;1877;-61
2022/06/27 11:43:50;;;;;;;;;;;28.20;45.10;;;;;;1588447;73;698;-58
2022/06/27 11:45:52;;;;;;;;;;;28.20;45.10;;;;;;1588157;73;847;-60
2022/06/27 11:47:54;;;;;;;;;;;28.20;45.00;;;;;;1583370;73;1607;-59
2022/06/27 11:50:06;;;;;;;;;;;28.20;45.10;;;;;;1582408;73;762;-60
2022/06/27 11:52:09;;;;;;;;;;;28.20;45.20;;;;;;1588546;73;714;-59
2022/06/27 11:54:12;;;;;;;;;;;28.20;45.20;;;;;;1582046;73;1671;-59
2022/06/27 11:56:23;;;;;;;;;;;28.20;45.10;;;;;;1586479;73;1923;-58
2022/06/27 11:58:25;;;;;;;;;;;28.20;45.20;;;;;;1580100;73;673;-57
2022/06/27 12:00:28;;;;;;;;;;;28.20;45.00;;;;;;1584928;73;648;-58
2022/06/27 12:02:34;;;;;;;;;;;28.20;44.90;;;;;;1590347;73;1579;-58
2022/06/27 12:04:36;;;;;;;;;;;28.20;44.80;;;;;;1589848;73;693;-60
2022/06/27 12:06:41;;;;;;;;;;;28.20;44.80;;;;;;1587989;73;1111;-56
2022/06/27 12:09:01;;;;;;;;;;;28.20;44.70;;;;;;1589659;73;746;-60
2022/06/27 12:11:26;;;;;;;;;;;28.20;44.70;;;;;;1585872;73;1642;-58
2022/06/27 12:13:22;;;;;;;;;;;28.20;44.60;;;;;;1587651;73;1734;-58
2022/06/27 12:15:26;;;;;;;;;;;28.10;44.50;;;;;;1571587;73;1098;-60
2022/06/27 12:17:30;;;;;;;;;;;28.10;44.50;;;;;;1569945;73;1919;-58